createdAt,value
2023-05-12T00:02:13.650Z,8.77
2023-05-12T00:07:20.558Z,8.80
2023-05-12T00:12:28.754Z,8.79
2023-05-12T00:17:35.273Z,8.78
2023-05-12T00:22:43.229Z,8.87
2023-05-12T00:27:51.079Z,8.90
2023-05-12T00:32:57.766Z,8.93
2023-05-12T00:38:04.380Z,8.85
2023-05-12T00:43:12.404Z,8.79
2023-05-12T00:48:18.839Z,8.87
2023-05-12T00:53:32.551Z,8.76
2023-05-12T00:58:47.449Z,8.71
2023-05-12T01:03:55.561Z,8.56
2023-05-12T01:09:02.420Z,8.48
2023-05-12T01:14:10.392Z,8.41
2023-05-12T01:19:34.877Z,8.33
2023-05-12T01:24:51.892Z,8.25
2023-05-12T01:30:03.565Z,8.20
2023-05-12T01:35:16.036Z,8.13
2023-05-12T01:40:28.300Z,8.05
2023-05-12T01:45:39.093Z,7.91
2023-05-12T01:50:45.821Z,7.60
2023-05-12T01:55:58.210Z,7.67
2023-05-12T02:01:07.912Z,7.48
2023-05-12T02:06:15.303Z,7.18
2023-05-12T02:11:24.978Z,7.15
2023-05-12T02:16:32.961Z,7.13
2023-05-12T02:21:40.279Z,7.15
2023-05-12T02:26:46.667Z,7.20
2023-05-12T02:31:55.157Z,7.10
2023-05-12T02:37:01.771Z,7.12
2023-05-12T02:42:09.441Z,7.03
2023-05-12T02:47:17.654Z,6.96
2023-05-12T02:52:25.758Z,6.82
2023-05-12T02:57:34.379Z,6.88
2023-05-12T03:02:43.442Z,6.76
2023-05-12T03:07:51.948Z,6.72
2023-05-12T03:13:02.090Z,6.64
2023-05-12T03:18:09.955Z,6.54
2023-05-12T03:23:17.197Z,6.68
2023-05-12T03:28:25.106Z,6.80
2023-05-12T03:33:33.280Z,6.86
2023-05-12T03:38:39.784Z,6.90
2023-05-12T03:43:46.375Z,7.06
2023-05-12T03:48:54.927Z,7.33
2023-05-12T03:54:01.149Z,7.62
2023-05-12T03:59:07.890Z,8.12
2023-05-12T04:04:18.888Z,8.38
2023-05-12T04:09:25.412Z,8.54
2023-05-12T04:14:42.203Z,8.67
2023-05-12T04:19:52.976Z,8.80
2023-05-12T04:24:59.785Z,9.02
2023-05-12T04:30:07.951Z,9.12
2023-05-12T04:35:18.198Z,9.38
2023-05-12T04:40:26.615Z,9.61
2023-05-12T04:45:33.299Z,9.81
2023-05-12T04:50:41.842Z,10.01
2023-05-12T04:55:50.400Z,10.20
2023-05-12T05:00:57.374Z,10.45
2023-05-12T05:06:05.592Z,10.62
2023-05-12T05:11:12.518Z,10.79
2023-05-12T05:16:19.269Z,10.99
2023-05-12T05:21:29.129Z,11.17
2023-05-12T05:26:36.071Z,11.29
2023-05-12T05:31:42.982Z,11.44
2023-05-12T05:36:52.145Z,11.59
2023-05-12T05:41:59.024Z,11.71
2023-05-12T05:47:06.421Z,11.89
2023-05-12T05:52:15.526Z,12.16
2023-05-12T05:57:23.364Z,12.23
2023-05-12T06:02:30.577Z,12.41
2023-05-12T06:07:39.781Z,12.56
2023-05-12T06:12:46.362Z,12.74
2023-05-12T06:17:52.929Z,12.88
2023-05-12T06:23:02.017Z,13.11
2023-05-12T06:28:08.895Z,13.27
2023-05-12T06:33:15.343Z,13.47
2023-05-12T06:38:23.222Z,13.64
2023-05-12T06:43:30.001Z,13.85
2023-05-12T06:48:36.713Z,13.97
2023-05-12T06:53:45.239Z,14.34
2023-05-12T06:58:52.900Z,14.45
2023-05-12T07:04:01.263Z,14.59
2023-05-12T07:09:09.463Z,14.75
2023-05-12T07:14:15.913Z,14.92
2023-05-12T07:19:23.476Z,15.07
2023-05-12T07:24:35.528Z,15.33
2023-05-12T07:29:41.878Z,15.50
2023-05-12T07:34:48.063Z,15.67
2023-05-12T07:39:56.111Z,15.74
2023-05-12T07:45:03.988Z,15.84
2023-05-12T07:50:12.392Z,15.92
2023-05-12T07:55:22.319Z,16.19
2023-05-12T08:00:29.177Z,16.18
2023-05-12T08:05:36.013Z,16.20
2023-05-12T08:10:43.828Z,16.28
2023-05-12T08:15:52.097Z,16.33
2023-05-12T08:20:58.754Z,16.33
2023-05-12T08:26:07.027Z,16.37
2023-05-12T08:31:13.733Z,16.61
2023-05-12T08:36:20.208Z,16.62
2023-05-12T08:41:41.952Z,16.77
2023-05-12T08:46:49.648Z,16.74
2023-05-12T08:51:58.635Z,16.84
2023-05-12T08:57:10.466Z,16.90
2023-05-12T09:02:19.208Z,16.94
2023-05-12T09:07:27.081Z,17.07
2023-05-12T09:12:39.394Z,17.22
2023-05-12T09:17:45.973Z,17.13
2023-05-12T09:22:52.616Z,17.07
2023-05-12T09:28:00.498Z,17.19
2023-05-12T09:33:10.560Z,17.23
2023-05-12T09:38:17.299Z,17.20
2023-05-12T09:43:25.473Z,17.22
2023-05-12T09:48:32.994Z,17.36
2023-05-12T09:53:45.189Z,17.35
2023-05-12T09:58:53.090Z,17.55
2023-05-12T10:04:01.331Z,17.56
2023-05-12T10:09:17.830Z,17.47
2023-05-12T10:14:26.649Z,17.53
2023-05-12T10:19:34.488Z,17.83
2023-05-12T10:24:43.574Z,17.75
2023-05-12T10:29:53.630Z,17.86
2023-05-12T10:35:10.817Z,17.98
2023-05-12T10:40:27.152Z,18.00
2023-05-12T10:45:39.528Z,18.06
2023-05-12T10:50:55.769Z,18.09
2023-05-12T10:56:06.960Z,18.21
2023-05-12T11:01:16.808Z,18.22
2023-05-12T11:06:24.262Z,18.27
2023-05-12T11:11:32.132Z,18.18
2023-05-12T11:16:49.846Z,18.32
2023-05-12T11:21:57.067Z,18.43
2023-05-12T11:27:04.476Z,18.37
2023-05-12T11:32:15.314Z,18.39
2023-05-12T11:37:21.748Z,18.48
2023-05-12T11:42:28.180Z,18.64
2023-05-12T11:47:36.337Z,18.73
2023-05-12T11:52:43.195Z,18.83
2023-05-12T11:58:02.461Z,18.94
2023-05-12T12:03:16.144Z,19.04
2023-05-12T12:08:22.917Z,19.12
2023-05-12T12:13:30.933Z,19.25
2023-05-12T12:18:38.940Z,19.07
2023-05-12T12:23:51.233Z,19.20
2023-05-12T12:28:58.354Z,19.24
2023-05-12T12:34:06.796Z,19.36
2023-05-12T12:39:13.903Z,19.50
2023-05-12T12:44:23.186Z,19.54
2023-05-12T12:49:31.076Z,19.42
2023-05-12T12:54:37.940Z,19.34
2023-05-12T12:59:44.401Z,19.26
2023-05-12T13:04:52.558Z,19.34
2023-05-12T13:09:59.615Z,19.34
2023-05-12T13:15:07.661Z,19.47
2023-05-12T13:20:16.382Z,19.48
2023-05-12T13:25:22.987Z,19.41
2023-05-12T13:30:29.764Z,19.27
2023-05-12T13:35:37.661Z,19.33
2023-05-12T13:40:44.060Z,19.35
2023-05-12T13:45:50.941Z,19.34
2023-05-12T13:50:58.969Z,19.68
2023-05-12T13:56:06.089Z,19.67
2023-05-12T14:01:12.968Z,19.77
2023-05-12T14:06:20.711Z,19.64
2023-05-12T14:11:27.279Z,19.51
2023-05-12T14:16:33.751Z,19.19
2023-05-12T14:21:42.330Z,19.07
2023-05-12T14:26:48.789Z,19.16
2023-05-12T14:31:55.656Z,19.31
2023-05-12T14:37:03.802Z,19.48
2023-05-12T14:42:10.463Z,19.53
2023-05-12T14:47:17.125Z,19.47
2023-05-12T14:52:26.903Z,19.36
2023-05-12T14:57:36.062Z,19.22
2023-05-12T15:02:45.093Z,19.28
2023-05-12T15:07:53.018Z,19.32
2023-05-12T15:12:59.538Z,19.30
2023-05-12T15:18:06.102Z,19.25
2023-05-12T15:23:13.924Z,19.26
2023-05-12T15:28:22.037Z,19.29
2023-05-12T15:33:29.858Z,19.34
2023-05-12T15:38:38.477Z,19.32
2023-05-12T15:43:45.134Z,19.32
2023-05-12T15:48:53.741Z,19.31
2023-05-12T15:54:03.072Z,19.27
2023-05-12T15:59:10.207Z,19.19
2023-05-12T16:04:17.691Z,19.14
2023-05-12T16:09:26.902Z,19.05
2023-05-12T16:14:33.497Z,18.99
2023-05-12T16:19:40.119Z,18.91
2023-05-12T16:24:49.096Z,18.80
2023-05-12T16:29:55.889Z,18.81
2023-05-12T16:35:02.600Z,18.74
2023-05-12T16:40:13.247Z,18.77
2023-05-12T16:45:21.712Z,18.67
2023-05-12T16:50:28.529Z,18.58
2023-05-12T16:55:36.552Z,18.46
2023-05-12T17:00:43.313Z,18.37
2023-05-12T17:05:52.079Z,18.22
2023-05-12T17:11:00.019Z,18.09
2023-05-12T17:16:08.227Z,18.10
2023-05-12T17:21:14.563Z,18.08
2023-05-12T17:26:22.894Z,18.07
2023-05-12T17:31:29.447Z,17.89
2023-05-12T17:36:36.447Z,17.79
2023-05-12T17:41:44.478Z,17.62
2023-05-12T17:46:51.275Z,17.50
2023-05-12T17:51:58.130Z,17.34
2023-05-12T17:57:07.885Z,17.17
2023-05-12T18:02:14.979Z,17.07
2023-05-12T18:07:22.798Z,16.93
2023-05-12T18:12:33.328Z,16.73
2023-05-12T18:17:40.467Z,16.60
2023-05-12T18:22:47.602Z,16.33
2023-05-12T18:27:56.002Z,16.04
2023-05-12T18:33:02.701Z,15.93
2023-05-12T18:38:09.561Z,15.76
2023-05-12T18:43:18.137Z,15.65
2023-05-12T18:48:25.097Z,15.37
2023-05-12T18:53:32.180Z,15.22
2023-05-12T18:58:41.998Z,14.90
2023-05-12T19:03:49.052Z,14.32
2023-05-12T19:08:56.624Z,14.05
2023-05-12T19:14:05.927Z,13.93
2023-05-12T19:19:13.536Z,13.55
2023-05-12T19:24:20.726Z,13.31
2023-05-12T19:29:29.013Z,13.13
2023-05-12T19:34:37.271Z,12.93
2023-05-12T19:39:44.200Z,12.78
2023-05-12T19:44:53.481Z,12.51
2023-05-12T19:50:00.297Z,12.29
2023-05-12T19:55:08.831Z,12.28
2023-05-12T20:00:19.266Z,12.18
2023-05-12T20:05:27.869Z,12.06
2023-05-12T20:10:34.885Z,11.89
2023-05-12T20:15:44.514Z,11.80
2023-05-12T20:20:52.031Z,11.56
2023-05-12T20:25:59.154Z,11.39
2023-05-12T20:31:08.907Z,11.21
2023-05-12T20:36:16.177Z,11.09
2023-05-12T20:41:23.514Z,10.92
2023-05-12T20:46:31.926Z,10.78
2023-05-12T20:51:40.241Z,10.61
2023-05-12T20:56:47.322Z,10.48
2023-05-12T21:01:55.723Z,10.44
2023-05-12T21:07:02.781Z,10.31
2023-05-12T21:12:10.918Z,10.16
2023-05-12T21:17:20.030Z,10.01
2023-05-12T21:22:28.101Z,9.98
2023-05-12T21:27:36.677Z,9.88
2023-05-12T21:32:45.166Z,9.70
2023-05-12T21:37:52.044Z,9.42
2023-05-12T21:42:58.935Z,9.39
2023-05-12T21:48:07.883Z,9.38
2023-05-12T21:53:15.208Z,9.19
2023-05-12T21:58:23.927Z,9.15
2023-05-12T22:03:32.477Z,8.92
2023-05-12T22:08:39.479Z,8.97
2023-05-12T22:13:46.142Z,8.77
2023-05-12T22:18:54.577Z,8.85
2023-05-12T22:24:01.572Z,8.71
2023-05-12T22:29:08.539Z,8.71
2023-05-12T22:34:16.725Z,8.68
2023-05-12T22:39:23.967Z,8.62
2023-05-12T22:44:31.188Z,8.44
2023-05-12T22:49:39.414Z,8.47
2023-05-12T22:54:45.939Z,8.41
2023-05-12T22:59:53.351Z,8.35
2023-05-12T23:05:01.903Z,8.31
2023-05-12T23:10:11.564Z,8.25
2023-05-12T23:15:18.468Z,8.25
2023-05-12T23:20:26.942Z,8.25
2023-05-12T23:25:35.559Z,8.22
2023-05-12T23:30:42.462Z,8.24
2023-05-12T23:35:50.611Z,8.22
2023-05-12T23:40:57.006Z,8.18
2023-05-12T23:46:03.736Z,8.12
2023-05-12T23:51:11.843Z,8.01
2023-05-12T23:56:18.341Z,7.83
